createdAt,value
2023-02-13T00:04:01.120Z,56.73
2023-02-13T00:09:06.405Z,49.77
2023-02-13T00:14:10.348Z,64.90
2023-02-13T00:19:13.327Z,56.97
2023-02-13T00:24:16.368Z,56.67
2023-02-13T00:29:19.433Z,50.83
2023-02-13T00:34:22.173Z,47.97
2023-02-13T00:39:25.029Z,45.70
2023-02-13T00:44:28.045Z,41.33
2023-02-13T00:49:31.019Z,41.80
2023-02-13T00:54:33.913Z,36.90
2023-02-13T00:59:36.918Z,45.63
2023-02-13T01:04:39.818Z,44.13
2023-02-13T01:09:42.892Z,36.63
2023-02-13T01:14:45.719Z,37.13
2023-02-13T01:19:48.734Z,30.30
2023-02-13T01:24:51.727Z,36.17
2023-02-13T01:29:55.214Z,25.73
2023-02-13T01:34:58.035Z,21.77
2023-02-13T01:40:01.140Z,30.53
2023-02-13T01:45:27.804Z,28.07
2023-02-13T01:50:45.282Z,25.33
2023-02-13T01:55:56.373Z,23.97
2023-02-13T02:01:01.073Z,33.23
2023-02-13T02:06:08.183Z,33.50
2023-02-13T02:11:22.916Z,31.63
2023-02-13T02:16:26.412Z,37.37
2023-02-13T02:21:58.495Z,36.80
2023-02-13T02:27:41.698Z,40.78
2023-02-13T02:33:27.823Z,41.00
2023-02-13T02:38:39.494Z,40.90
2023-02-13T02:49:35.491Z,35.03
2023-02-13T02:55:09.503Z,35.50
2023-02-13T03:00:32.303Z,38.27
2023-02-13T03:05:59.034Z,35.27
2023-02-13T03:11:20.899Z,32.57
2023-02-13T03:16:44.328Z,30.73
2023-02-13T03:22:17.835Z,32.93
2023-02-13T03:28:17.262Z,27.17
2023-02-13T03:34:05.078Z,27.03
2023-02-13T03:39:47.466Z,24.43
2023-02-13T03:45:21.888Z,28.53
2023-02-13T03:50:27.507Z,21.87
2023-02-13T03:55:55.826Z,20.33
2023-02-13T04:01:03.213Z,23.17
2023-02-13T04:06:20.444Z,28.53
2023-02-13T04:11:39.783Z,29.93
2023-02-13T04:17:11.683Z,73.67
2023-02-13T04:22:15.667Z,63.78
2023-02-13T04:27:18.905Z,38.93
2023-02-13T04:32:21.649Z,27.37
2023-02-13T04:37:24.697Z,25.77
2023-02-13T04:42:27.648Z,28.23
2023-02-13T04:47:30.631Z,19.50
2023-02-13T04:52:33.673Z,23.60
2023-02-13T04:57:36.675Z,18.97
2023-02-13T05:02:39.772Z,22.13
2023-02-13T05:07:43.159Z,25.10
2023-02-13T05:12:47.649Z,24.43
2023-02-13T05:17:51.251Z,20.07
2023-02-13T05:23:13.377Z,22.67
2023-02-13T05:33:38.638Z,23.37
2023-02-13T05:38:41.644Z,25.23
2023-02-13T05:43:44.687Z,23.70
2023-02-13T05:48:47.725Z,22.07
2023-02-13T05:53:51.055Z,22.20
2023-02-13T05:58:55.938Z,24.60
2023-02-13T06:04:00.960Z,25.93
2023-02-13T06:09:05.912Z,34.57
2023-02-13T06:14:08.974Z,25.53
2023-02-13T06:19:11.972Z,39.20
2023-02-13T06:24:15.069Z,36.20
2023-02-13T06:29:18.121Z,31.30
2023-02-13T06:34:20.857Z,39.90
2023-02-13T06:39:23.848Z,33.80
2023-02-13T06:44:26.924Z,37.00
2023-02-13T06:49:29.829Z,42.40
2023-02-13T06:54:46.405Z,32.30
2023-02-13T06:59:50.508Z,29.70
2023-02-13T07:04:53.419Z,34.00
2023-02-13T07:09:56.418Z,45.00
2023-02-13T07:15:00.032Z,36.40
2023-02-13T07:20:05.108Z,44.87
2023-02-13T07:25:08.724Z,55.20
2023-02-13T07:30:12.365Z,48.43
2023-02-13T07:35:15.394Z,37.80
2023-02-13T07:40:18.677Z,48.87
2023-02-13T07:45:21.662Z,44.73
2023-02-13T07:50:24.881Z,43.73
2023-02-13T07:55:31.446Z,40.10
2023-02-13T08:00:34.400Z,33.33
2023-02-13T08:05:38.846Z,29.60
2023-02-13T08:11:00.169Z,22.50
2023-02-13T08:16:03.590Z,20.92
2023-02-13T08:21:06.655Z,23.27
2023-02-13T08:26:09.657Z,30.80
2023-02-13T08:31:13.626Z,28.37
2023-02-13T08:36:17.123Z,22.13
2023-02-13T08:41:22.183Z,30.60
2023-02-13T08:46:25.336Z,20.97
2023-02-13T08:51:28.377Z,20.00
2023-02-13T08:56:31.335Z,19.93
2023-02-13T09:01:34.453Z,18.67
2023-02-13T09:06:37.489Z,21.57
2023-02-13T09:11:40.206Z,26.63
2023-02-13T09:16:43.322Z,18.97
2023-02-13T09:21:46.319Z,48.77
2023-02-13T09:26:49.244Z,23.30
2023-02-13T09:31:52.853Z,17.75
2023-02-13T09:36:56.052Z,19.75
2023-02-13T09:42:00.948Z,20.70
2023-02-13T09:47:25.726Z,16.60
2023-02-13T09:52:37.211Z,17.65
2023-02-13T09:57:56.769Z,16.88
2023-02-13T10:02:59.703Z,19.73
2023-02-13T10:08:36.729Z,25.55
2023-02-13T10:14:00.762Z,17.17
2023-02-13T10:19:34.361Z,25.75
2023-02-13T10:24:47.244Z,23.73
2023-02-13T10:30:28.130Z,18.05
2023-02-13T10:35:32.333Z,13.80
2023-02-13T10:40:43.068Z,16.35
2023-02-13T10:45:57.330Z,19.63
2023-02-13T10:51:25.926Z,18.55
2023-02-13T10:57:22.515Z,18.88
2023-02-13T11:02:29.316Z,14.00
2023-02-13T11:07:32.721Z,15.00
2023-02-13T11:12:35.805Z,15.65
2023-02-13T11:17:44.169Z,65.75
2023-02-13T11:22:47.498Z,20.90
2023-02-13T11:27:56.180Z,16.77
2023-02-13T11:33:04.236Z,15.68
2023-02-13T11:38:16.515Z,15.95
2023-02-13T11:43:47.976Z,17.20
2023-02-13T11:49:06.679Z,16.83
2023-02-13T11:54:42.150Z,26.92
2023-02-13T11:59:47.745Z,21.55
2023-02-13T12:05:13.302Z,15.38
2023-02-13T12:10:26.539Z,18.60
2023-02-13T12:15:33.824Z,21.43
2023-02-13T12:21:18.237Z,17.20
2023-02-13T12:26:33.384Z,17.23
2023-02-13T12:32:09.660Z,15.70
2023-02-13T12:37:15.645Z,16.63
2023-02-13T12:42:58.092Z,17.67
2023-02-13T12:48:28.456Z,15.55
2023-02-13T12:53:58.310Z,15.27
2023-02-13T12:59:30.128Z,17.70
2023-02-13T13:05:27.492Z,11.43
2023-02-13T13:11:03.630Z,8.00
2023-02-13T13:16:09.412Z,9.53
2023-02-13T13:21:50.072Z,9.43
2023-02-13T13:26:57.318Z,11.63
2023-02-13T13:32:08.725Z,16.50
2023-02-13T13:37:31.580Z,11.68
2023-02-13T13:42:40.708Z,13.37
2023-02-13T13:48:01.920Z,14.97
2023-02-13T13:53:21.053Z,18.90
2023-02-13T13:58:43.271Z,21.43
2023-02-13T14:03:53.256Z,25.63
2023-02-13T14:09:04.137Z,23.30
2023-02-13T14:14:29.069Z,23.60
2023-02-13T14:19:40.449Z,18.17
2023-02-13T14:29:52.685Z,27.43
2023-02-13T14:35:16.812Z,34.97
2023-02-13T14:40:49.386Z,19.13
2023-02-13T14:46:02.105Z,15.70
2023-02-13T14:51:06.177Z,21.57
2023-02-13T14:56:15.593Z,16.63
2023-02-13T15:01:32.392Z,18.20
2023-02-13T15:06:41.907Z,29.77
2023-02-13T15:11:45.311Z,37.43
2023-02-13T15:16:57.907Z,19.37
2023-02-13T15:22:04.597Z,17.97
2023-02-13T15:27:16.528Z,13.87
2023-02-13T15:32:26.424Z,20.90
2023-02-13T15:37:31.168Z,30.20
2023-02-13T15:42:34.495Z,24.37
2023-02-13T15:47:37.685Z,11.60
2023-02-13T15:52:40.729Z,13.63
2023-02-13T15:57:43.915Z,10.10
2023-02-13T16:02:48.741Z,12.17
2023-02-13T16:07:58.931Z,11.23
2023-02-13T16:13:07.592Z,11.67
2023-02-13T16:18:20.648Z,9.47
2023-02-13T16:23:23.711Z,28.73
2023-02-13T16:28:31.878Z,17.87
2023-02-13T16:33:39.315Z,17.90
2023-02-13T16:38:45.310Z,14.77
2023-02-13T16:43:56.137Z,16.00
2023-02-13T16:49:01.742Z,16.73
2023-02-13T16:54:10.748Z,26.20
2023-02-13T16:59:47.957Z,24.10
2023-02-13T17:05:14.702Z,16.33
2023-02-13T17:10:36.484Z,14.50
2023-02-13T17:15:46.508Z,16.15
2023-02-13T17:20:49.826Z,21.43
2023-02-13T17:25:54.175Z,24.87
2023-02-13T17:30:59.886Z,23.03
2023-02-13T17:36:03.489Z,18.73
2023-02-13T17:41:14.888Z,19.00
2023-02-13T17:46:18.086Z,23.33
2023-02-13T17:51:21.319Z,19.33
2023-02-13T17:56:24.242Z,21.97
2023-02-13T18:01:29.352Z,21.97
2023-02-13T18:06:32.278Z,26.20
2023-02-13T18:11:35.356Z,25.47
2023-02-13T18:16:38.415Z,23.17
2023-02-13T18:21:42.137Z,24.57
2023-02-13T18:26:45.194Z,24.63
2023-02-13T18:31:48.490Z,24.27
2023-02-13T18:36:51.514Z,25.97
2023-02-13T18:41:54.508Z,23.00
2023-02-13T18:46:58.251Z,25.70
2023-02-13T18:52:02.347Z,24.93
2023-02-13T18:57:06.196Z,28.00
2023-02-13T19:02:10.334Z,23.70
2023-02-13T19:07:13.925Z,25.87
2023-02-13T19:12:16.998Z,22.53
2023-02-13T19:17:20.177Z,20.00
2023-02-13T19:22:23.037Z,24.73
2023-02-13T19:27:26.143Z,26.73
2023-02-13T19:32:29.059Z,23.13
2023-02-13T19:37:43.054Z,24.03
2023-02-13T19:42:48.298Z,17.73
2023-02-13T19:47:51.409Z,21.27
2023-02-13T19:52:54.531Z,22.27
2023-02-13T19:57:57.725Z,19.07
2023-02-13T20:03:04.820Z,16.70
2023-02-13T20:08:07.829Z,15.73
2023-02-13T20:13:10.770Z,12.63
2023-02-13T20:18:13.792Z,15.90
2023-02-13T20:23:18.573Z,17.70
2023-02-13T20:28:21.569Z,19.80
2023-02-13T20:33:24.557Z,17.63
2023-02-13T20:38:27.631Z,16.50
2023-02-13T20:43:32.782Z,17.77
2023-02-13T20:48:37.357Z,13.77
2023-02-13T20:53:42.519Z,15.67
2023-02-13T20:58:48.614Z,15.07
2023-02-13T21:03:56.314Z,15.97
2023-02-13T21:08:59.432Z,20.47
2023-02-13T21:14:02.986Z,25.33
2023-02-13T21:19:19.317Z,35.23
2023-02-13T21:24:23.591Z,40.00
2023-02-13T21:29:26.685Z,28.30
2023-02-13T21:34:29.777Z,47.40
2023-02-13T21:39:32.786Z,27.03
2023-02-13T21:44:36.030Z,23.10
2023-02-13T21:49:39.067Z,23.90
2023-02-13T21:54:42.080Z,21.37
2023-02-13T21:59:45.009Z,17.30
2023-02-13T22:04:48.017Z,19.17
2023-02-13T22:09:51.167Z,19.77
2023-02-13T22:14:55.223Z,23.90
2023-02-13T22:19:58.160Z,21.60
2023-02-13T22:25:01.664Z,23.43
2023-02-13T22:30:06.813Z,21.93
2023-02-13T22:35:10.012Z,22.03
2023-02-13T22:40:13.250Z,18.70
2023-02-13T22:45:16.410Z,19.00
2023-02-13T22:50:19.867Z,16.37
2023-02-13T22:55:22.708Z,16.63
2023-02-13T23:00:27.000Z,15.83
2023-02-13T23:05:29.925Z,18.10
2023-02-13T23:10:32.926Z,19.37
2023-02-13T23:15:36.761Z,23.30
2023-02-13T23:20:44.171Z,20.00
2023-02-13T23:25:47.078Z,26.27
2023-02-13T23:30:50.151Z,20.80
2023-02-13T23:35:53.352Z,24.30
2023-02-13T23:40:56.584Z,25.13
2023-02-13T23:45:59.410Z,22.03
2023-02-13T23:51:02.719Z,21.27
2023-02-13T23:56:06.434Z,21.30
